createdAt,value
2022-10-05T00:01:35.700Z,15.52
2022-10-05T00:06:37.377Z,14.48
2022-10-05T00:11:39.027Z,19.50
2022-10-05T00:16:40.685Z,13.73
2022-10-05T00:21:42.396Z,11.90
2022-10-05T00:26:44.363Z,20.08
2022-10-05T00:31:46.427Z,17.02
2022-10-05T00:36:48.474Z,18.75
2022-10-05T00:42:11.181Z,10.57
2022-10-05T00:47:15.689Z,12.20
2022-10-05T00:52:50.163Z,20.92
2022-10-05T00:58:28.761Z,22.67
2022-10-05T01:03:46.512Z,20.00
2022-10-05T01:08:51.198Z,16.80
2022-10-05T01:14:04.913Z,19.08
2022-10-05T01:19:20.202Z,15.15
2022-10-05T01:24:30.973Z,17.90
2022-10-05T01:29:41.462Z,28.08
2022-10-05T01:35:07.995Z,13.35
2022-10-05T01:40:48.101Z,19.35
2022-10-05T01:45:58.585Z,19.70
2022-10-05T01:51:18.956Z,17.50
2022-10-05T01:56:29.541Z,13.55
2022-10-05T02:01:55.588Z,16.73
2022-10-05T02:06:58.774Z,26.70
2022-10-05T02:12:08.160Z,11.70
2022-10-05T02:17:35.332Z,15.20
2022-10-05T02:22:46.496Z,17.92
2022-10-05T02:27:55.541Z,8.70
2022-10-05T02:33:29.875Z,18.70
2022-10-05T02:39:05.465Z,9.85
2022-10-05T02:44:16.787Z,17.40
2022-10-05T02:49:49.291Z,19.98
2022-10-05T02:55:20.828Z,18.13
2022-10-05T03:00:25.609Z,21.25
2022-10-05T03:05:54.057Z,15.32
2022-10-05T03:11:04.902Z,26.80
2022-10-05T03:16:24.800Z,13.35
2022-10-05T03:21:45.132Z,16.92
2022-10-05T03:26:58.946Z,13.93
2022-10-05T03:32:09.679Z,28.98
2022-10-05T03:37:21.352Z,17.45
2022-10-05T03:42:41.589Z,12.73
2022-10-05T03:48:16.647Z,12.70
2022-10-05T03:53:22.100Z,13.93
2022-10-05T03:58:41.227Z,12.95
2022-10-05T04:03:57.255Z,8.90
2022-10-05T04:09:31.811Z,15.05
2022-10-05T04:14:46.748Z,9.23
2022-10-05T04:19:59.128Z,7.90
2022-10-05T04:25:14.753Z,7.18
2022-10-05T04:30:20.453Z,8.75
2022-10-05T04:35:30.861Z,7.57
2022-10-05T04:40:50.201Z,8.55
2022-10-05T04:46:10.127Z,7.60
2022-10-05T04:51:29.796Z,6.50
2022-10-05T04:56:39.028Z,6.65
2022-10-05T05:02:16.274Z,6.65
2022-10-05T05:07:36.643Z,6.97
2022-10-05T05:13:16.630Z,13.88
2022-10-05T05:18:39.801Z,6.40
2022-10-05T05:23:49.937Z,9.75
2022-10-05T05:29:05.864Z,7.30
2022-10-05T05:34:29.110Z,6.25
2022-10-05T05:39:52.601Z,5.57
2022-10-05T05:44:58.002Z,5.65
2022-10-05T05:50:32.414Z,5.05
2022-10-05T05:55:45.007Z,4.97
2022-10-05T06:00:52.634Z,4.90
2022-10-05T06:06:01.807Z,6.03
2022-10-05T06:11:11.261Z,5.82
2022-10-05T06:16:12.929Z,5.53
2022-10-05T06:21:25.339Z,5.50
2022-10-05T06:26:49.069Z,4.70
2022-10-05T06:32:06.148Z,5.85
2022-10-05T06:37:17.941Z,4.72
2022-10-05T06:42:19.625Z,5.90
2022-10-05T06:47:35.034Z,6.45
2022-10-05T06:52:58.251Z,6.97
2022-10-05T06:58:37.665Z,6.10
2022-10-05T07:04:07.463Z,6.55
2022-10-05T07:09:14.966Z,7.15
2022-10-05T07:14:52.118Z,6.95
2022-10-05T07:20:15.261Z,6.75
2022-10-05T07:25:38.559Z,6.10
2022-10-05T07:31:09.760Z,6.60
2022-10-05T07:37:08.665Z,5.85
2022-10-05T07:42:19.321Z,7.10
2022-10-05T07:47:50.040Z,6.78
2022-10-05T07:53:21.999Z,7.23
2022-10-05T07:59:06.192Z,7.20
2022-10-05T08:04:35.203Z,6.68
2022-10-05T08:10:31.995Z,7.53
2022-10-05T08:16:18.630Z,8.10
2022-10-05T08:22:18.919Z,7.55
2022-10-05T08:27:26.625Z,7.45
2022-10-05T08:32:34.967Z,8.93
2022-10-05T08:37:41.580Z,7.65
2022-10-05T08:43:08.942Z,9.43
2022-10-05T08:48:38.585Z,8.45
2022-10-05T08:54:07.692Z,9.07
2022-10-05T08:59:15.433Z,8.45
2022-10-05T09:04:39.982Z,8.98
2022-10-05T09:10:11.726Z,9.68
2022-10-05T09:15:32.124Z,9.43
2022-10-05T09:20:50.986Z,9.93
2022-10-05T09:26:27.667Z,9.07
2022-10-05T09:31:47.455Z,7.78
2022-10-05T09:36:55.439Z,8.73
2022-10-05T09:42:44.685Z,8.52
2022-10-05T09:48:05.078Z,9.10
2022-10-05T09:53:40.934Z,8.05
2022-10-05T09:59:08.628Z,7.72
2022-10-05T10:09:52.740Z,5.97
2022-10-05T10:15:28.446Z,4.10
2022-10-05T10:21:05.579Z,3.42
2022-10-05T10:26:19.029Z,3.30
2022-10-05T10:31:35.842Z,3.90
2022-10-05T10:37:13.961Z,3.97
2022-10-05T10:42:34.411Z,3.63
2022-10-05T10:47:36.094Z,4.45
2022-10-05T10:52:56.246Z,4.50
2022-10-05T10:58:35.029Z,4.65
2022-10-05T11:04:13.829Z,4.47
2022-10-05T11:09:25.821Z,4.40
2022-10-05T11:14:45.643Z,4.00
2022-10-05T11:20:04.158Z,4.10
2022-10-05T11:25:37.922Z,4.10
2022-10-05T11:31:02.503Z,4.05
2022-10-05T11:36:25.859Z,4.15
2022-10-05T11:41:45.725Z,3.95
2022-10-05T11:47:04.714Z,3.47
2022-10-05T11:52:13.107Z,3.65
2022-10-05T11:57:20.042Z,3.97
2022-10-05T12:02:55.473Z,3.90
2022-10-05T12:08:09.071Z,3.63
2022-10-05T12:13:53.498Z,3.70
2022-10-05T12:19:17.691Z,3.42
2022-10-05T12:24:26.836Z,3.88
2022-10-05T12:29:53.669Z,3.53
2022-10-05T12:35:11.674Z,3.30
2022-10-05T12:40:23.680Z,3.33
2022-10-05T12:45:43.418Z,3.42
2022-10-05T12:50:56.827Z,3.30
2022-10-05T12:56:09.420Z,3.20
2022-10-05T13:01:43.144Z,3.30
2022-10-05T13:07:22.916Z,2.83
2022-10-05T13:12:36.049Z,3.00
2022-10-05T13:17:50.063Z,2.80
2022-10-05T13:23:14.895Z,2.60
2022-10-05T13:28:23.225Z,3.00
2022-10-05T13:33:33.391Z,2.78
2022-10-05T13:39:13.425Z,2.83
2022-10-05T13:44:35.262Z,2.92
2022-10-05T13:50:02.314Z,2.75
2022-10-05T13:55:19.235Z,2.97
2022-10-05T14:00:26.257Z,2.95
2022-10-05T14:05:30.772Z,3.15
2022-10-05T14:10:39.023Z,3.10
2022-10-05T14:15:42.424Z,3.13
2022-10-05T14:21:01.729Z,3.15
2022-10-05T14:26:04.419Z,3.40
2022-10-05T14:31:14.976Z,3.20
2022-10-05T14:36:35.081Z,3.13
2022-10-05T14:41:37.613Z,3.25
2022-10-05T14:46:52.102Z,3.47
2022-10-05T14:51:55.850Z,3.47
2022-10-05T14:57:06.817Z,3.50
2022-10-05T15:02:45.313Z,3.50
2022-10-05T15:07:51.374Z,3.72
2022-10-05T15:12:55.668Z,3.95
2022-10-05T15:18:15.469Z,3.60
2022-10-05T15:23:35.329Z,4.18
2022-10-05T15:28:41.694Z,3.70
2022-10-05T15:34:12.433Z,3.80
2022-10-05T15:39:20.001Z,3.85
2022-10-05T15:44:52.342Z,3.92
2022-10-05T15:50:21.203Z,4.30
2022-10-05T15:55:35.386Z,3.80
2022-10-05T16:00:48.004Z,3.72
2022-10-05T16:06:37.613Z,3.60
2022-10-05T16:12:01.538Z,3.55
2022-10-05T16:17:05.765Z,3.60
2022-10-05T16:22:33.540Z,3.78
2022-10-05T16:27:35.147Z,3.40
2022-10-05T16:32:43.204Z,3.28
2022-10-05T16:37:57.764Z,3.40
2022-10-05T16:43:21.092Z,2.97
2022-10-05T16:48:26.254Z,3.20
2022-10-05T16:53:37.816Z,3.17
2022-10-05T16:58:45.238Z,3.60
2022-10-05T17:04:16.564Z,3.10
2022-10-05T17:09:53.499Z,3.33
2022-10-05T17:15:10.114Z,3.00
2022-10-05T17:20:50.979Z,3.10
2022-10-05T17:26:32.794Z,3.35
2022-10-05T17:32:09.914Z,3.00
2022-10-05T17:37:32.057Z,3.40
2022-10-05T17:42:34.285Z,3.13
2022-10-05T17:47:54.470Z,4.13
2022-10-05T17:53:53.554Z,3.95
2022-10-05T17:58:58.902Z,4.47
2022-10-05T18:04:12.422Z,4.13
2022-10-05T18:09:14.009Z,4.80
2022-10-05T18:14:19.704Z,4.60
2022-10-05T18:19:22.784Z,4.70
2022-10-05T18:24:38.934Z,4.57
2022-10-05T18:30:13.881Z,4.47
2022-10-05T18:35:33.434Z,4.22
2022-10-05T18:40:41.122Z,4.20
2022-10-05T18:46:23.272Z,4.43
2022-10-05T18:51:35.863Z,4.50
2022-10-05T18:56:51.854Z,4.70
2022-10-05T19:02:11.045Z,4.95
2022-10-05T19:07:48.216Z,5.35
2022-10-05T19:13:14.857Z,4.93
2022-10-05T19:18:39.868Z,4.70
2022-10-05T19:24:11.070Z,4.70
2022-10-05T19:34:19.985Z,4.47
2022-10-05T19:39:50.641Z,4.88
2022-10-05T19:45:38.963Z,4.78
2022-10-05T19:50:53.668Z,4.97
2022-10-05T19:55:55.762Z,5.28
2022-10-05T20:01:01.159Z,5.68
2022-10-05T20:06:07.513Z,5.15
2022-10-05T20:11:11.968Z,4.82
2022-10-05T20:16:35.360Z,4.50
2022-10-05T20:21:38.124Z,5.90
2022-10-05T20:27:06.681Z,6.03
2022-10-05T20:32:14.237Z,5.80
2022-10-05T20:37:18.189Z,5.43
2022-10-05T20:42:20.993Z,5.18
2022-10-05T20:47:23.178Z,5.80
2022-10-05T20:52:24.768Z,5.38
2022-10-05T20:57:26.703Z,5.13
2022-10-05T21:02:28.757Z,4.55
2022-10-05T21:07:30.389Z,3.28
2022-10-05T21:12:34.000Z,3.95
2022-10-05T21:17:38.124Z,4.47
2022-10-05T21:22:39.711Z,3.70
2022-10-05T21:27:41.354Z,3.00
2022-10-05T21:32:44.683Z,3.13
2022-10-05T21:37:46.595Z,3.58
2022-10-05T21:42:48.162Z,3.40
2022-10-05T21:47:50.053Z,4.32
2022-10-05T21:52:51.996Z,3.90
2022-10-05T21:57:56.825Z,3.20
2022-10-05T22:02:58.441Z,3.50
2022-10-05T22:08:00.302Z,3.55
2022-10-05T22:13:04.678Z,2.80
2022-10-05T22:18:06.370Z,3.30
2022-10-05T22:23:07.957Z,2.70
2022-10-05T22:28:13.553Z,3.20
2022-10-05T22:33:15.219Z,2.83
2022-10-05T22:38:16.824Z,2.53
2022-10-05T22:43:18.453Z,2.97
2022-10-05T22:48:20.077Z,2.42
2022-10-05T22:53:21.659Z,2.50
2022-10-05T22:58:23.377Z,2.55
2022-10-05T23:03:25.153Z,2.60
2022-10-05T23:08:27.252Z,2.40
2022-10-05T23:13:29.631Z,2.63
2022-10-05T23:18:31.897Z,2.42
2022-10-05T23:23:36.265Z,2.50
2022-10-05T23:28:40.281Z,2.42
2022-10-05T23:33:42.085Z,2.60
2022-10-05T23:38:44.476Z,2.80
2022-10-05T23:43:46.693Z,2.90
2022-10-05T23:48:50.361Z,2.80
2022-10-05T23:53:52.013Z,2.50
2022-10-05T23:58:53.636Z,2.70
